createdAt,value
2022-11-16T00:00:19.185Z,146.65
2022-11-16T00:02:52.293Z,142.00
2022-11-16T00:05:27.997Z,127.45
2022-11-16T00:07:58.552Z,149.32
2022-11-16T00:10:28.524Z,144.77
2022-11-16T00:12:58.829Z,137.40
2022-11-16T00:15:29.368Z,177.02
2022-11-16T00:18:02.067Z,160.48
2022-11-16T00:20:32.079Z,155.77
2022-11-16T00:23:02.130Z,141.13
2022-11-16T00:25:32.154Z,152.13
2022-11-16T00:28:02.143Z,169.10
2022-11-16T00:30:44.673Z,143.05
2022-11-16T00:33:19.287Z,138.82
2022-11-16T00:35:49.594Z,143.90
2022-11-16T00:38:25.102Z,138.90
2022-11-16T00:40:55.257Z,134.73
2022-11-16T00:43:25.665Z,132.82
2022-11-16T00:45:56.691Z,133.40
2022-11-16T00:48:29.967Z,133.68
2022-11-16T00:51:00.684Z,146.50
2022-11-16T00:53:31.019Z,140.65
2022-11-16T00:56:01.717Z,141.57
2022-11-16T00:58:34.879Z,130.03
2022-11-16T01:01:11.845Z,126.55
2022-11-16T01:03:44.559Z,126.68
2022-11-16T01:06:16.802Z,137.18
2022-11-16T01:08:47.837Z,133.30
2022-11-16T01:11:40.571Z,128.15
2022-11-16T01:14:12.042Z,125.75
2022-11-16T01:16:42.756Z,127.13
2022-11-16T01:19:15.372Z,150.25
2022-11-16T01:21:45.809Z,133.40
2022-11-16T01:24:15.797Z,142.10
2022-11-16T01:26:45.792Z,132.48
2022-11-16T01:29:16.234Z,136.60
2022-11-16T01:31:53.850Z,136.00
2022-11-16T01:34:27.022Z,161.18
2022-11-16T01:37:03.054Z,151.77
2022-11-16T01:39:36.314Z,158.38
2022-11-16T01:42:07.146Z,147.75
2022-11-16T01:45:00.608Z,149.20
2022-11-16T01:47:32.266Z,148.70
2022-11-16T01:50:13.134Z,144.98
2022-11-16T01:52:50.239Z,144.65
2022-11-16T01:55:21.798Z,150.23
2022-11-16T01:58:28.933Z,148.88
2022-11-16T02:01:11.963Z,140.20
2022-11-16T02:03:48.453Z,154.20
2022-11-16T02:06:36.065Z,142.90
2022-11-16T02:09:54.913Z,138.10
2022-11-16T02:13:04.012Z,147.18
2022-11-16T02:15:55.096Z,135.95
2022-11-16T02:18:48.800Z,143.52
2022-11-16T02:21:29.926Z,154.70
2022-11-16T02:24:27.720Z,150.35
2022-11-16T02:27:42.279Z,131.25
2022-11-16T02:30:15.645Z,134.13
2022-11-16T02:32:52.871Z,137.00
2022-11-16T02:35:28.524Z,137.32
2022-11-16T02:38:05.404Z,136.30
2022-11-16T02:40:40.411Z,146.20
2022-11-16T02:43:15.144Z,142.35
2022-11-16T02:45:54.871Z,132.88
2022-11-16T02:48:30.465Z,136.25
2022-11-16T02:51:00.942Z,139.25
2022-11-16T02:53:31.244Z,134.20
2022-11-16T02:56:02.817Z,133.27
2022-11-16T02:58:33.527Z,124.07
2022-11-16T03:01:11.828Z,128.00
2022-11-16T03:03:46.967Z,123.97
2022-11-16T03:06:23.949Z,122.70
2022-11-16T03:09:03.287Z,123.45
2022-11-16T03:11:49.879Z,121.18
2022-11-16T03:14:25.490Z,130.20
2022-11-16T03:17:00.326Z,126.15
2022-11-16T03:19:37.032Z,124.25
2022-11-16T03:22:14.302Z,121.25
2022-11-16T03:24:44.826Z,123.18
2022-11-16T03:27:24.530Z,127.82
2022-11-16T03:30:03.145Z,122.78
2022-11-16T03:32:43.399Z,123.90
2022-11-16T03:35:19.178Z,122.22
2022-11-16T03:37:55.680Z,125.05
2022-11-16T03:40:29.799Z,130.55
2022-11-16T03:43:02.892Z,128.65
2022-11-16T03:45:34.980Z,126.05
2022-11-16T03:48:11.219Z,137.20
2022-11-16T03:50:41.992Z,129.10
2022-11-16T03:53:13.022Z,132.68
2022-11-16T03:55:48.531Z,146.05
2022-11-16T03:58:20.121Z,138.77
2022-11-16T04:00:50.968Z,157.65
2022-11-16T04:03:24.182Z,152.27
2022-11-16T04:06:07.024Z,159.10
2022-11-16T04:08:49.524Z,136.32
2022-11-16T04:11:35.888Z,161.65
2022-11-16T04:14:18.519Z,138.27
2022-11-16T04:17:00.908Z,138.50
2022-11-16T04:19:45.886Z,161.77
2022-11-16T04:22:34.674Z,139.38
2022-11-16T04:25:11.892Z,148.40
2022-11-16T04:27:54.362Z,143.35
2022-11-16T04:30:48.644Z,146.43
2022-11-16T04:33:31.830Z,134.65
2022-11-16T04:36:20.606Z,133.93
2022-11-16T04:38:51.040Z,148.35
2022-11-16T04:41:33.936Z,167.15
2022-11-16T04:44:03.974Z,142.05
2022-11-16T04:46:46.934Z,152.77
2022-11-16T04:49:17.036Z,140.50
2022-11-16T04:51:50.008Z,150.35
2022-11-16T04:54:20.581Z,152.67
2022-11-16T04:56:50.706Z,154.85
2022-11-16T04:59:21.060Z,163.13
2022-11-16T05:02:03.552Z,149.15
2022-11-16T05:04:33.647Z,163.15
2022-11-16T05:07:10.982Z,146.75
2022-11-16T05:09:45.856Z,137.50
2022-11-16T05:12:18.648Z,160.73
2022-11-16T05:14:50.680Z,142.50
2022-11-16T05:17:22.463Z,170.85
2022-11-16T05:20:04.992Z,147.32
2022-11-16T05:22:44.393Z,135.20
2022-11-16T05:25:15.690Z,135.65
2022-11-16T05:27:45.756Z,138.88
2022-11-16T05:30:16.480Z,154.80
2022-11-16T05:32:47.025Z,142.93
2022-11-16T05:35:19.682Z,131.00
2022-11-16T05:37:53.350Z,132.15
2022-11-16T05:40:24.062Z,131.65
2022-11-16T05:43:02.652Z,145.60
2022-11-16T05:45:38.565Z,141.55
2022-11-16T05:48:10.652Z,143.23
2022-11-16T05:50:42.949Z,144.82
2022-11-16T05:53:26.793Z,150.02
2022-11-16T05:55:57.095Z,166.50
2022-11-16T05:58:27.844Z,161.75
2022-11-16T06:00:58.699Z,169.63
2022-11-16T06:03:31.261Z,144.32
2022-11-16T06:06:03.219Z,131.77
2022-11-16T06:08:37.927Z,168.73
2022-11-16T06:11:13.591Z,133.20
2022-11-16T06:13:43.743Z,144.40
2022-11-16T06:16:15.384Z,169.52
2022-11-16T06:18:47.583Z,172.18
2022-11-16T06:21:21.140Z,151.93
2022-11-16T06:23:54.782Z,186.73
2022-11-16T06:26:24.804Z,165.15
2022-11-16T06:28:55.053Z,172.65
2022-11-16T06:31:26.291Z,165.52
2022-11-16T06:33:58.265Z,165.27
2022-11-16T06:36:31.527Z,174.07
2022-11-16T06:39:05.219Z,166.55
2022-11-16T06:41:41.463Z,152.57
2022-11-16T06:44:13.783Z,164.13
2022-11-16T06:46:54.185Z,148.98
2022-11-16T06:49:24.226Z,152.23
2022-11-16T06:51:56.264Z,143.75
2022-11-16T06:54:29.106Z,143.55
2022-11-16T06:56:59.212Z,139.85
2022-11-16T06:59:29.746Z,135.90
2022-11-16T07:02:01.073Z,144.20
2022-11-16T07:04:35.026Z,143.70
2022-11-16T07:07:05.780Z,152.25
2022-11-16T07:09:40.587Z,159.20
2022-11-16T07:12:11.419Z,160.20
2022-11-16T07:14:45.659Z,161.30
2022-11-16T07:19:48.200Z,160.55
2022-11-16T07:22:18.824Z,162.85
2022-11-16T07:24:52.250Z,179.00
2022-11-16T07:27:24.044Z,200.60
2022-11-16T07:29:55.716Z,202.18
2022-11-16T07:32:40.087Z,232.55
2022-11-16T07:35:18.205Z,234.13
2022-11-16T07:37:48.366Z,236.82
2022-11-16T07:40:22.184Z,232.32
2022-11-16T07:42:52.680Z,234.27
2022-11-16T07:45:36.701Z,236.68
2022-11-16T07:48:10.608Z,230.15
2022-11-16T07:51:04.497Z,227.38
2022-11-16T07:53:38.229Z,216.77
2022-11-16T07:56:12.303Z,207.30
2022-11-16T07:58:43.936Z,204.48
2022-11-16T08:01:15.976Z,194.65
2022-11-16T08:03:48.953Z,196.23
2022-11-16T08:06:22.169Z,188.48
2022-11-16T08:08:58.314Z,189.13
2022-11-16T08:11:32.092Z,174.45
2022-11-16T08:14:02.068Z,180.52
2022-11-16T08:16:33.485Z,175.38
2022-11-16T08:19:11.791Z,176.73
2022-11-16T08:21:41.930Z,181.25
2022-11-16T08:24:12.771Z,180.35
2022-11-16T08:26:47.838Z,173.70
2022-11-16T08:29:18.681Z,173.38
2022-11-16T08:31:53.073Z,160.70
2022-11-16T08:34:25.009Z,158.98
2022-11-16T08:37:00.524Z,163.98
2022-11-16T08:39:40.566Z,167.93
2022-11-16T08:42:14.574Z,164.25
2022-11-16T08:44:49.590Z,158.60
2022-11-16T08:47:22.539Z,146.73
2022-11-16T08:49:56.482Z,144.43
2022-11-16T08:52:29.117Z,147.20
2022-11-16T08:55:00.390Z,139.63
2022-11-16T08:57:33.686Z,137.20
2022-11-16T09:00:09.621Z,134.90
2022-11-16T09:02:39.637Z,138.65
2022-11-16T09:05:12.226Z,136.60
2022-11-16T09:07:44.226Z,134.02
2022-11-16T09:10:15.214Z,125.60
2022-11-16T09:12:48.010Z,125.63
2022-11-16T09:15:19.630Z,119.23
2022-11-16T09:17:54.944Z,120.20
2022-11-16T09:20:26.516Z,117.32
2022-11-16T09:22:56.589Z,120.03
2022-11-16T09:25:26.867Z,119.88
2022-11-16T09:28:00.676Z,109.45
2022-11-16T09:30:31.684Z,110.95
2022-11-16T09:33:02.215Z,110.35
2022-11-16T09:35:32.233Z,115.50
2022-11-16T09:38:02.229Z,102.85
2022-11-16T09:40:36.299Z,101.43
2022-11-16T09:43:18.737Z,101.95
2022-11-16T09:45:56.022Z,96.22
2022-11-16T09:48:27.632Z,100.15
2022-11-16T09:51:01.904Z,95.28
2022-11-16T09:53:36.421Z,96.78
2022-11-16T09:56:10.618Z,98.38
2022-11-16T09:58:51.124Z,97.20
2022-11-16T10:01:27.190Z,95.72
2022-11-16T10:04:03.684Z,99.18
2022-11-16T10:06:43.975Z,99.65
2022-11-16T10:09:16.614Z,102.88
2022-11-16T10:12:12.444Z,106.15
2022-11-16T10:15:13.153Z,103.68
2022-11-16T10:18:12.091Z,105.45
2022-11-16T10:20:56.785Z,105.18
2022-11-16T10:23:38.908Z,104.32
2022-11-16T10:26:21.160Z,100.78
2022-11-16T10:29:05.185Z,114.90
2022-11-16T10:34:23.781Z,106.97
2022-11-16T10:36:54.253Z,120.32
2022-11-16T10:39:24.897Z,119.80
2022-11-16T10:41:55.093Z,127.85
2022-11-16T10:44:33.243Z,120.38
2022-11-16T10:47:07.658Z,112.15
2022-11-16T10:49:49.675Z,106.53
2022-11-16T10:52:19.717Z,106.10
2022-11-16T10:54:49.881Z,104.03
2022-11-16T10:57:20.062Z,118.60
2022-11-16T10:59:53.416Z,113.18
2022-11-16T11:02:35.428Z,104.78
2022-11-16T11:05:17.197Z,113.30
2022-11-16T11:07:58.337Z,109.80
2022-11-16T11:10:34.947Z,112.65
2022-11-16T11:13:25.841Z,99.20
2022-11-16T11:16:15.387Z,97.88
2022-11-16T11:18:45.387Z,101.97
2022-11-16T11:21:24.502Z,102.95
2022-11-16T11:24:10.620Z,106.00
2022-11-16T11:26:52.366Z,112.47
2022-11-16T11:29:27.940Z,117.22
2022-11-16T11:32:00.901Z,118.55
2022-11-16T11:34:33.542Z,112.57
2022-11-16T11:37:08.754Z,109.30
2022-11-16T11:39:39.938Z,141.55
2022-11-16T11:42:23.825Z,113.55
2022-11-16T11:45:01.350Z,117.78
2022-11-16T11:48:02.191Z,108.20
2022-11-16T11:50:53.804Z,108.00
2022-11-16T11:53:42.197Z,98.38
2022-11-16T11:56:15.113Z,93.20
2022-11-16T11:58:46.628Z,89.13
2022-11-16T12:01:50.555Z,79.63
2022-11-16T12:04:45.540Z,74.22
2022-11-16T12:07:25.356Z,75.18
2022-11-16T12:10:07.397Z,75.15
2022-11-16T12:12:50.285Z,74.32
2022-11-16T12:15:41.805Z,76.80
2022-11-16T12:18:28.882Z,76.18
2022-11-16T12:21:08.103Z,72.80
2022-11-16T12:23:56.971Z,75.63
2022-11-16T12:26:43.590Z,73.88
2022-11-16T12:29:27.042Z,71.53
2022-11-16T12:32:18.565Z,68.03
2022-11-16T12:35:01.528Z,67.63
2022-11-16T12:37:41.817Z,69.63
2022-11-16T12:40:32.038Z,64.13
2022-11-16T12:43:14.773Z,61.83
2022-11-16T12:46:05.952Z,54.03
2022-11-16T12:49:05.596Z,51.47
2022-11-16T12:51:50.193Z,46.83
2022-11-16T12:55:23.989Z,48.45
2022-11-16T12:57:55.974Z,50.55
2022-11-16T13:00:31.230Z,51.20
2022-11-16T13:03:19.634Z,52.72
2022-11-16T13:06:00.163Z,59.05
2022-11-16T13:08:46.980Z,56.95
2022-11-16T13:11:22.257Z,58.47
2022-11-16T13:13:59.293Z,56.25
2022-11-16T13:16:32.496Z,61.65
2022-11-16T13:19:03.895Z,55.80
2022-11-16T13:21:46.875Z,54.67
2022-11-16T13:24:33.442Z,55.53
2022-11-16T13:27:19.742Z,52.00
2022-11-16T13:29:56.700Z,69.13
2022-11-16T13:32:39.881Z,195.57
2022-11-16T13:35:16.616Z,119.83
2022-11-16T13:37:52.061Z,94.43
2022-11-16T13:40:33.701Z,108.95
2022-11-16T13:43:17.596Z,52.13
2022-11-16T13:48:31.698Z,43.22
2022-11-16T13:51:05.205Z,41.53
2022-11-16T13:56:29.712Z,37.42
2022-11-16T13:59:01.529Z,39.60
2022-11-16T14:01:59.562Z,36.38
2022-11-16T14:04:44.742Z,33.92
2022-11-16T14:07:34.334Z,32.67
2022-11-16T14:10:05.810Z,32.25
2022-11-16T14:13:04.518Z,30.25
2022-11-16T14:15:40.046Z,31.27
2022-11-16T14:18:38.435Z,29.58
2022-11-16T14:21:26.789Z,27.02
2022-11-16T14:24:14.738Z,27.30
2022-11-16T14:26:59.184Z,27.48
2022-11-16T14:29:44.731Z,27.00
2022-11-16T14:32:24.252Z,25.95
2022-11-16T14:34:56.340Z,28.52
2022-11-16T14:37:39.334Z,28.77
2022-11-16T14:40:17.841Z,29.23
2022-11-16T14:43:15.418Z,28.00
2022-11-16T14:45:44.030Z,28.50
2022-11-16T14:48:18.992Z,32.13
2022-11-16T14:51:01.981Z,31.58
2022-11-16T14:53:37.540Z,34.15
2022-11-16T14:56:13.639Z,34.53
2022-11-16T14:58:54.169Z,32.05
2022-11-16T15:01:27.227Z,33.40
2022-11-16T15:04:02.577Z,30.70
2022-11-16T15:06:43.783Z,30.55
2022-11-16T15:09:22.755Z,28.15
2022-11-16T15:12:06.249Z,39.15
2022-11-16T15:14:41.202Z,28.08
2022-11-16T15:17:12.148Z,27.58
2022-11-16T15:19:42.195Z,26.90
2022-11-16T15:22:20.958Z,26.77
2022-11-16T15:25:03.935Z,25.88
2022-11-16T15:27:40.684Z,27.90
2022-11-16T15:30:20.416Z,29.98
2022-11-16T15:32:53.060Z,31.55
2022-11-16T15:35:28.047Z,32.28
2022-11-16T15:38:09.346Z,31.80
2022-11-16T15:40:42.762Z,37.88
2022-11-16T15:43:15.023Z,36.22
2022-11-16T15:45:46.902Z,32.05
2022-11-16T15:48:21.171Z,31.63
2022-11-16T15:51:08.205Z,32.58
2022-11-16T15:53:40.932Z,43.00
2022-11-16T15:56:18.408Z,33.88
2022-11-16T15:58:49.289Z,32.55
2022-11-16T16:01:20.143Z,45.45
2022-11-16T16:03:57.887Z,45.55
2022-11-16T16:06:56.471Z,40.97
2022-11-16T16:09:29.805Z,35.50
2022-11-16T16:12:19.683Z,38.10
2022-11-16T16:14:51.431Z,36.08
2022-11-16T16:17:27.136Z,40.55
2022-11-16T16:19:59.256Z,38.78
2022-11-16T16:22:32.562Z,39.28
2022-11-16T16:25:04.262Z,39.13
2022-11-16T16:27:42.866Z,40.25
2022-11-16T16:30:17.131Z,42.90
2022-11-16T16:32:51.551Z,43.45
2022-11-16T16:35:30.673Z,40.40
2022-11-16T16:38:11.355Z,43.88
2022-11-16T16:40:41.617Z,52.35
2022-11-16T16:43:14.744Z,54.97
2022-11-16T16:45:46.331Z,55.75
2022-11-16T16:48:16.597Z,50.72
2022-11-16T16:50:47.221Z,49.92
2022-11-16T16:53:18.144Z,53.33
2022-11-16T16:55:49.175Z,53.10
2022-11-16T16:58:22.611Z,53.45
2022-11-16T17:03:33.733Z,50.50
2022-11-16T17:06:04.592Z,55.55
2022-11-16T17:08:36.714Z,50.35
2022-11-16T17:11:07.508Z,47.90
2022-11-16T17:13:40.125Z,48.13
2022-11-16T17:16:10.933Z,43.45
2022-11-16T17:18:40.971Z,40.67
2022-11-16T17:21:12.429Z,47.35
2022-11-16T17:23:42.466Z,46.13
2022-11-16T17:26:12.605Z,41.45
2022-11-16T17:28:45.288Z,41.40
2022-11-16T17:31:17.577Z,38.70
2022-11-16T17:33:49.945Z,37.08
2022-11-16T17:36:20.461Z,38.35
2022-11-16T17:38:50.448Z,41.40
2022-11-16T17:41:22.817Z,38.72
2022-11-16T17:43:57.031Z,38.72
2022-11-16T17:46:27.458Z,36.45
2022-11-16T17:48:57.838Z,39.65
2022-11-16T17:51:29.968Z,38.17
2022-11-16T17:54:00.266Z,37.97
2022-11-16T17:56:30.922Z,38.70
2022-11-16T17:59:03.942Z,40.58
2022-11-16T18:01:34.055Z,38.33
2022-11-16T18:04:06.219Z,39.03
2022-11-16T18:06:36.316Z,40.35
2022-11-16T18:09:06.385Z,41.08
2022-11-16T18:11:36.637Z,36.70
2022-11-16T18:14:10.680Z,36.70
2022-11-16T18:16:42.467Z,36.38
2022-11-16T18:19:12.921Z,34.88
2022-11-16T18:21:44.155Z,36.38
2022-11-16T18:24:14.964Z,39.03
2022-11-16T18:26:45.383Z,36.45
2022-11-16T18:29:19.847Z,35.63
2022-11-16T18:31:49.851Z,33.53
2022-11-16T18:34:19.820Z,31.88
2022-11-16T18:36:52.372Z,34.70
2022-11-16T18:39:22.369Z,33.63
2022-11-16T18:41:55.075Z,33.97
2022-11-16T18:44:28.351Z,34.65
2022-11-16T18:46:58.293Z,36.03
2022-11-16T18:49:28.365Z,29.15
2022-11-16T18:51:58.749Z,35.00
2022-11-16T18:54:28.824Z,31.70
2022-11-16T18:56:58.936Z,32.28
2022-11-16T18:59:31.881Z,32.88
2022-11-16T19:02:01.948Z,33.30
2022-11-16T19:04:32.256Z,36.58
2022-11-16T19:07:02.620Z,35.70
2022-11-16T19:09:32.879Z,34.60
2022-11-16T19:12:02.947Z,33.88
2022-11-16T19:14:35.940Z,37.72
2022-11-16T19:17:06.660Z,37.47
2022-11-16T19:19:36.671Z,44.20
2022-11-16T19:22:06.677Z,43.38
2022-11-16T19:24:37.001Z,43.28
2022-11-16T19:27:07.118Z,45.25
2022-11-16T19:29:39.881Z,75.82
2022-11-16T19:32:09.938Z,58.78
2022-11-16T19:34:40.290Z,49.25
2022-11-16T19:37:10.867Z,48.80
2022-11-16T19:39:40.852Z,41.05
2022-11-16T19:42:11.222Z,43.72
2022-11-16T19:44:43.805Z,39.20
2022-11-16T19:47:13.846Z,40.78
2022-11-16T19:49:43.899Z,49.47
2022-11-16T19:52:14.343Z,43.38
2022-11-16T19:54:44.486Z,40.83
2022-11-16T19:57:15.792Z,38.88
2022-11-16T19:59:48.600Z,46.85
2022-11-16T20:02:18.575Z,64.07
2022-11-16T20:04:48.733Z,46.65
2022-11-16T20:07:20.052Z,42.45
2022-11-16T20:09:53.337Z,41.38
2022-11-16T20:12:25.160Z,47.13
2022-11-16T20:14:57.726Z,45.00
2022-11-16T20:17:27.799Z,33.90
2022-11-16T20:19:58.034Z,34.03
2022-11-16T20:22:28.023Z,30.35
2022-11-16T20:24:58.565Z,33.60
2022-11-16T20:27:28.600Z,34.03
2022-11-16T20:30:06.489Z,33.67
2022-11-16T20:32:39.210Z,33.25
2022-11-16T20:35:10.486Z,36.30
2022-11-16T20:37:43.285Z,35.13
2022-11-16T20:40:14.666Z,32.88
2022-11-16T20:42:45.209Z,35.35
2022-11-16T20:45:20.276Z,36.92
2022-11-16T20:47:50.367Z,38.88
2022-11-16T20:50:20.534Z,38.33
2022-11-16T20:52:52.814Z,43.90
2022-11-16T20:55:23.036Z,34.72
2022-11-16T20:57:53.020Z,32.17
2022-11-16T21:00:28.116Z,33.67
2022-11-16T21:02:58.488Z,32.08
2022-11-16T21:05:28.485Z,32.35
2022-11-16T21:07:59.719Z,32.75
2022-11-16T21:10:31.213Z,30.17
2022-11-16T21:13:13.579Z,34.15
2022-11-16T21:15:46.709Z,36.15
2022-11-16T21:18:17.010Z,36.60
2022-11-16T21:20:46.981Z,34.60
2022-11-16T21:23:16.957Z,38.58
2022-11-16T21:25:47.340Z,34.15
2022-11-16T21:28:20.184Z,39.15
2022-11-16T21:31:04.582Z,34.45
2022-11-16T21:33:35.373Z,38.88
2022-11-16T21:36:07.111Z,39.05
2022-11-16T21:38:37.584Z,36.88
2022-11-16T21:41:08.454Z,38.38
2022-11-16T21:43:40.445Z,37.13
2022-11-16T21:46:14.388Z,36.42
2022-11-16T21:48:44.914Z,35.65
2022-11-16T21:51:16.700Z,33.97
2022-11-16T21:53:47.276Z,33.70
2022-11-16T21:56:19.336Z,35.65
2022-11-16T21:58:50.060Z,35.97
2022-11-16T22:01:23.425Z,33.55
2022-11-16T22:04:06.183Z,31.52
2022-11-16T22:06:48.678Z,34.72
2022-11-16T22:09:18.770Z,33.53
2022-11-16T22:11:48.831Z,33.70
2022-11-16T22:14:18.877Z,33.35
2022-11-16T22:16:53.757Z,34.55
2022-11-16T22:19:23.896Z,38.55
2022-11-16T22:21:53.941Z,38.17
2022-11-16T22:24:24.057Z,38.30
2022-11-16T22:26:54.273Z,37.17
2022-11-16T22:29:24.468Z,38.38
2022-11-16T22:31:58.659Z,40.17
2022-11-16T22:34:28.774Z,40.63
2022-11-16T22:36:58.847Z,42.08
2022-11-16T22:39:28.850Z,41.22
2022-11-16T22:41:58.996Z,40.22
2022-11-16T22:44:29.037Z,41.90
2022-11-16T22:47:01.873Z,39.35
2022-11-16T22:49:31.867Z,40.50
2022-11-16T22:52:03.323Z,39.72
2022-11-16T22:54:34.777Z,39.50
2022-11-16T22:57:04.962Z,40.65
2022-11-16T22:59:35.087Z,38.30
2022-11-16T23:02:08.677Z,41.00
2022-11-16T23:04:38.903Z,40.58
2022-11-16T23:07:08.956Z,40.85
2022-11-16T23:09:38.973Z,40.42
2022-11-16T23:12:21.727Z,44.60
2022-11-16T23:15:04.156Z,41.53
2022-11-16T23:17:37.037Z,44.30
2022-11-16T23:20:21.193Z,42.15
2022-11-16T23:23:05.936Z,43.28
2022-11-16T23:25:48.619Z,43.50
2022-11-16T23:28:21.052Z,44.58
2022-11-16T23:30:51.595Z,44.63
2022-11-16T23:33:44.040Z,47.00
2022-11-16T23:36:14.764Z,46.10
2022-11-16T23:38:44.744Z,50.65
2022-11-16T23:41:27.106Z,56.30
2022-11-16T23:44:03.138Z,52.15
2022-11-16T23:46:36.849Z,54.40
2022-11-16T23:49:09.471Z,54.92
2022-11-16T23:51:39.466Z,55.17
2022-11-16T23:54:09.614Z,55.10
2022-11-16T23:56:39.836Z,55.35
2022-11-16T23:59:09.989Z,50.55
